Time;durP1;ratioP1;P1;durP2;ratioP2;P2;SDS_P1;SDS_P2;PMS_P1;PMS_P2;Temp;Humidity;BMP_temperature;BMP_pressure;BME280_temperature;BME280_humidity;BME280_pressure;Samples;Min_cycle;Max_cycle;Signal;HPM_P1;HPM_P2
2023/02/16 00:00:18;;;;;;;50.13;21.63;;;-0.60;99.90;;;;;;5018259;28;20262;-83
2023/02/16 00:02:43;;;;;;;43.63;19.33;;;-0.60;99.90;;;;;;5018154;28;20623;-83
2023/02/16 00:05:31;;;;;;;46.73;21.20;;;-0.60;99.90;;;;;;5035772;28;20212;-83
2023/02/16 00:07:58;;;;;;;47.67;15.23;;;-0.60;99.90;;;;;;5035475;28;20188;-83
2023/02/16 00:10:25;;;;;;;19.87;9.80;;;-0.60;99.90;;;;;;5035980;28;20177;-83
2023/02/16 00:15:36;;;;;;;21.33;7.53;;;-0.40;99.90;;;;;;5035768;28;20633;-83
2023/02/16 00:18:04;;;;;;;10.67;7.83;;;-0.40;99.90;;;;;;5036108;28;20181;-83
2023/02/16 00:20:30;;;;;;;15.13;6.97;;;-0.40;99.90;;;;;;5035879;28;20221;-83
2023/02/16 00:22:56;;;;;;;8.80;5.77;;;-0.30;99.90;;;;;;5017656;28;20213;-83
2023/02/16 00:25:22;;;;;;;14.93;6.97;;;-0.30;99.90;;;;;;5035190;28;20242;-83
2023/02/16 00:27:48;;;;;;;12.70;6.57;;;-0.20;99.90;;;;;;5035491;28;20289;-82
2023/02/16 00:30:16;;;;;;;17.90;6.80;;;-0.20;99.90;;;;;;5035334;28;20260;-83
2023/02/16 00:32:41;;;;;;;17.60;8.67;;;0.00;99.90;;;;;;5017620;28;20176;-83
2023/02/16 00:35:15;;;;;;;25.60;10.50;;;0.00;99.90;;;;;;5034151;28;20184;-83
2023/02/16 00:37:40;;;;;;;25.27;7.43;;;0.10;99.90;;;;;;5035280;28;20268;-83
2023/02/16 00:40:07;;;;;;;22.17;10.67;;;0.10;99.90;;;;;;5035452;28;20208;-83
2023/02/16 00:42:33;;;;;;;29.93;10.17;;;0.10;99.90;;;;;;5035338;28;20231;-83
2023/02/16 00:44:59;;;;;;;14.87;8.73;;;0.10;99.90;;;;;;5035132;28;20274;-83
2023/02/16 00:47:34;;;;;;;19.83;9.37;;;0.10;99.90;;;;;;5034962;28;20192;-83
2023/02/16 00:50:00;;;;;;;36.80;10.87;;;0.10;99.90;;;;;;5034881;28;20164;-83
2023/02/16 00:52:31;;;;;;;18.93;9.47;;;0.10;99.90;;;;;;5017631;28;20182;-83
2023/02/16 00:54:58;;;;;;;19.10;11.67;;;0.10;99.90;;;;;;5034646;28;20181;-83
2023/02/16 00:57:24;;;;;;;46.53;15.90;;;0.20;99.90;;;;;;5035624;28;20184;-83
2023/02/16 01:00:13;;;;;;;32.50;14.07;;;0.20;99.90;;;;;;5034822;28;20203;-83
2023/02/16 01:02:41;;;;;;;23.93;9.97;;;0.20;99.90;;;;;;5034664;28;20529;-83
2023/02/16 01:05:07;;;;;;;20.87;8.37;;;0.20;99.90;;;;;;5000712;28;20583;-83
2023/02/16 01:13:04;;;;;;;23.50;11.03;;;0.30;99.90;;;;;;5034572;28;20631;-82
2023/02/16 01:15:30;;;;;;;25.37;8.77;;;0.30;99.90;;;;;;5034718;28;20649;-82
2023/02/16 01:17:56;;;;;;;24.27;6.77;;;0.30;99.90;;;;;;5034606;28;20177;-83
2023/02/16 01:20:25;;;;;;;14.60;7.47;;;0.30;99.90;;;;;;5034413;28;20591;-83
2023/02/16 01:22:51;;;;;;;26.17;9.80;;;0.30;99.90;;;;;;5034349;28;20177;-83
2023/02/16 01:25:17;;;;;;;28.50;9.90;;;0.40;99.90;;;;;;5034491;28;20235;-83
2023/02/16 01:27:43;;;;;;;48.17;9.30;;;0.40;99.90;;;;;;5016802;28;20195;-83
2023/02/16 01:30:21;;;;;;;9.33;6.83;;;0.40;99.90;;;;;;5034220;28;20259;-83
2023/02/16 01:32:50;;;;;;;17.43;8.20;;;0.40;99.90;;;;;;5016702;28;20183;-83
2023/02/16 01:35:30;;;;;;;33.20;7.83;;;0.50;99.90;;;;;;5016798;28;20510;-83
2023/02/16 01:37:55;;;;;;;16.03;6.97;;;0.60;99.90;;;;;;5034379;28;20629;-83
2023/02/16 01:40:30;;;;;;;15.97;8.20;;;0.50;99.90;;;;;;5034373;28;20184;-83
2023/02/16 01:43:09;;;;;;;9.17;4.57;;;0.60;99.90;;;;;;5016432;28;20517;-83
2023/02/16 01:45:39;;;;;;;9.83;6.13;;;0.50;99.90;;;;;;5034080;28;20242;-83
2023/02/16 01:48:12;;;;;;;9.57;5.87;;;0.70;99.90;;;;;;5033492;28;20174;-83
2023/02/16 01:50:57;;;;;;;18.93;7.33;;;0.70;99.90;;;;;;5015934;28;20264;-83
2023/02/16 01:53:54;;;;;;;22.13;9.33;;;0.70;99.90;;;;;;5015822;28;20571;-83
2023/02/16 01:56:38;;;;;;;14.60;7.00;;;0.70;99.90;;;;;;5032909;28;20191;-83
2023/02/16 01:59:28;;;;;;;11.10;4.20;;;0.60;99.90;;;;;;5033741;28;20190;-83
2023/02/16 02:01:56;;;;;;;13.90;7.17;;;0.60;99.90;;;;;;5013722;28;20652;-83
2023/02/16 02:07:53;;;;;;;20.13;8.43;;;0.60;99.90;;;;;;5013566;28;20196;-83
2023/02/16 02:10:31;;;;;;;27.67;9.67;;;0.60;99.90;;;;;;5014230;28;20180;-83
2023/02/16 02:13:34;;;;;;;26.50;8.47;;;0.60;99.90;;;;;;4996477;28;20203;-83
2023/02/16 02:16:00;;;;;;;10.47;8.23;;;0.60;99.90;;;;;;4996068;28;20668;-83
2023/02/16 02:18:26;;;;;;;18.73;9.00;;;0.50;99.90;;;;;;5013461;28;20546;-83
2023/02/16 02:24:13;;;;;;;17.67;5.90;;;0.60;99.90;;;;;;5013402;28;20313;-83
2023/02/16 02:27:03;;;;;;;13.40;6.70;;;0.60;99.90;;;;;;5013982;28;20191;-83
2023/02/16 02:29:49;;;;;;;29.87;9.93;;;0.60;99.90;;;;;;5013445;28;20265;-83
2023/02/16 02:32:40;;;;;;;22.27;10.20;;;0.60;99.90;;;;;;5013672;28;20629;-83
2023/02/16 02:35:20;;;;;;;11.93;6.50;;;0.60;99.90;;;;;;5013573;28;20169;-84
2023/02/16 02:37:52;;;;;;;15.07;8.03;;;0.60;99.90;;;;;;5013750;28;20174;-83
2023/02/16 02:40:30;;;;;;;17.47;6.80;;;0.60;99.90;;;;;;4995862;28;20277;-83
2023/02/16 02:43:22;;;;;;;45.50;16.30;;;0.60;99.90;;;;;;5013724;28;20247;-83
2023/02/16 02:46:06;;;;;;;25.87;8.47;;;0.60;99.90;;;;;;5012260;28;20295;-83
2023/02/16 02:48:33;;;;;;;23.23;8.93;;;0.60;99.90;;;;;;4996103;28;20630;-83
2023/02/16 03:02:40;;;;;;;11.00;5.40;;;0.60;99.90;;;;;;5017732;28;20176;-83
2023/02/16 03:05:08;;;;;;;27.47;9.07;;;0.60;99.90;;;;;;4999610;28;20219;-83
2023/02/16 03:07:45;;;;;;;18.17;6.63;;;0.60;99.90;;;;;;5017537;28;20200;-83
2023/02/16 03:13:20;;;;;;;21.83;9.60;;;0.60;99.90;;;;;;5017350;28;20272;-83
2023/02/16 03:15:48;;;;;;;18.67;8.67;;;0.70;99.90;;;;;;5017362;28;20311;-83
2023/02/16 03:29:21;;;;;;;9.27;5.13;;;0.70;99.90;;;;;;5016818;28;20227;-83
2023/02/16 03:31:51;;;;;;;28.70;8.90;;;0.60;99.90;;;;;;4999517;28;20724;-83
2023/02/16 03:34:19;;;;;;;12.07;6.97;;;0.60;99.90;;;;;;5016680;28;20533;-83
2023/02/16 03:36:47;;;;;;;16.67;7.30;;;0.60;99.90;;;;;;5028666;28;20200;-83
2023/02/16 03:39:13;;;;;;;14.50;6.43;;;0.70;99.90;;;;;;5036189;28;20259;-83
2023/02/16 03:41:44;;;;;;;18.73;6.70;;;0.60;99.90;;;;;;5019104;28;20608;-83
2023/02/16 03:44:10;;;;;;;13.07;7.23;;;0.50;99.90;;;;;;5036321;28;20240;-83
2023/02/16 03:46:35;;;;;;;11.60;6.90;;;0.50;99.90;;;;;;5036292;28;20264;-83
2023/02/16 03:49:01;;;;;;;18.90;7.90;;;0.50;99.90;;;;;;5002331;28;20185;-83
2023/02/16 03:51:27;;;;;;;13.13;8.03;;;0.50;99.90;;;;;;5036137;28;20219;-83
2023/02/16 03:53:53;;;;;;;27.27;11.67;;;0.50;99.90;;;;;;5036388;28;20184;-83
2023/02/16 03:56:18;;;;;;;31.83;13.10;;;0.50;99.90;;;;;;5035640;28;20549;-83
2023/02/16 03:58:44;;;;;;;21.63;8.00;;;0.50;99.90;;;;;;5036312;28;20177;-83
2023/02/16 04:01:10;;;;;;;22.93;9.37;;;0.40;99.90;;;;;;5018377;28;20180;-83
2023/02/16 04:03:35;;;;;;;20.30;9.50;;;0.40;99.90;;;;;;5035927;28;20219;-83
2023/02/16 04:06:01;;;;;;;22.23;9.93;;;0.40;99.90;;;;;;5002081;28;20209;-84
2023/02/16 04:08:27;;;;;;;16.10;8.07;;;0.40;99.90;;;;;;5035867;28;20184;-83
2023/02/16 04:10:55;;;;;;;19.33;8.27;;;0.40;99.90;;;;;;5036223;28;20176;-83
2023/02/16 04:13:21;;;;;;;22.73;10.30;;;0.30;99.90;;;;;;5035754;28;20173;-83
2023/02/16 04:15:47;;;;;;;15.83;7.73;;;0.30;99.90;;;;;;5001918;28;20191;-83
2023/02/16 04:18:13;;;;;;;12.27;7.40;;;0.30;99.90;;;;;;5035587;28;20176;-83
2023/02/16 04:20:38;;;;;;;27.53;8.67;;;0.30;99.90;;;;;;5035884;28;20180;-84
2023/02/16 04:23:04;;;;;;;21.27;7.27;;;0.30;99.90;;;;;;4985638;28;20176;-84
2023/02/16 04:25:30;;;;;;;12.07;7.90;;;0.30;99.90;;;;;;5017589;28;20308;-81
2023/02/16 04:27:56;;;;;;;23.03;9.60;;;0.30;99.90;;;;;;5035846;28;20239;-84
2023/02/16 04:30:24;;;;;;;16.80;8.97;;;0.20;99.90;;;;;;5035436;28;20181;-81
2023/02/16 04:32:50;;;;;;;21.23;8.40;;;0.20;99.90;;;;;;5035853;28;20198;-82
2023/02/16 04:35:17;;;;;;;16.23;8.33;;;0.20;99.90;;;;;;5017652;28;20546;-82
2023/02/16 04:37:42;;;;;;;20.13;7.77;;;0.20;99.90;;;;;;5035582;28;20181;-82
2023/02/16 04:40:15;;;;;;;13.90;6.17;;;0.10;99.90;;;;;;5017810;28;20180;-83
2023/02/16 04:42:42;;;;;;;13.20;7.47;;;0.10;99.90;;;;;;5035376;28;20173;-82
2023/02/16 04:45:09;;;;;;;17.30;9.23;;;0.00;99.90;;;;;;5017305;28;20212;-82
2023/02/16 04:47:35;;;;;;;12.57;5.90;;;0.00;99.90;;;;;;4997876;28;20277;-83
2023/02/16 04:50:01;;;;;;;11.53;6.00;;;0.00;99.90;;;;;;4998458;28;20221;-83
2023/02/16 04:52:26;;;;;;;20.63;7.40;;;0.00;99.90;;;;;;4997890;28;20246;-83
2023/02/16 04:54:52;;;;;;;17.77;7.77;;;0.00;99.90;;;;;;5015902;28;20604;-82
2023/02/16 04:57:21;;;;;;;14.37;6.63;;;0.00;99.90;;;;;;4997860;28;20191;-82
2023/02/16 04:59:47;;;;;;;15.33;5.90;;;0.00;99.90;;;;;;4997896;28;20275;-83
2023/02/16 05:02:12;;;;;;;23.87;8.47;;;0.00;99.90;;;;;;5002646;28;20393;-82
2023/02/16 05:04:38;;;;;;;11.70;7.03;;;0.00;99.90;;;;;;5026313;28;20223;-83
2023/02/16 05:07:04;;;;;;;12.63;6.87;;;0.00;99.90;;;;;;5012888;28;20185;-83
2023/02/16 05:09:29;;;;;;;22.30;8.23;;;0.10;99.90;;;;;;5025980;28;20184;-83
2023/02/16 05:14:43;;;;;;;25.67;12.97;;;0.10;99.90;;;;;;5024007;28;20348;-83
2023/02/16 05:17:16;;;;;;;34.17;17.30;;;0.10;99.90;;;;;;4990683;28;20591;-83
2023/02/16 05:19:43;;;;;;;28.13;13.93;;;0.10;99.90;;;;;;5028560;28;20192;-83
2023/02/16 05:22:10;;;;;;;24.40;12.03;;;0.10;99.90;;;;;;5013278;28;20189;-83
2023/02/16 05:24:36;;;;;;;18.97;10.07;;;0.20;99.90;;;;;;4995661;28;20236;-84
2023/02/16 05:27:04;;;;;;;21.13;13.60;;;0.10;99.90;;;;;;5014461;28;20247;-83
2023/02/16 05:29:30;;;;;;;17.47;8.83;;;0.20;99.90;;;;;;5022987;28;20183;-83
2023/02/16 05:31:56;;;;;;;18.03;8.93;;;0.20;99.90;;;;;;5022217;28;20272;-83
2023/02/16 05:34:22;;;;;;;17.23;7.50;;;0.20;99.90;;;;;;5012121;28;20243;-83
2023/02/16 05:36:48;;;;;;;11.33;7.07;;;0.20;99.90;;;;;;4997389;28;20193;-83
2023/02/16 05:39:14;;;;;;;15.07;8.30;;;0.20;99.90;;;;;;4996450;28;20650;-83
2023/02/16 05:41:39;;;;;;;11.00;6.57;;;0.20;99.90;;;;;;4996180;28;20190;-83
2023/02/16 05:44:06;;;;;;;8.03;7.20;;;0.20;99.90;;;;;;4996653;28;20599;-83
2023/02/16 05:46:35;;;;;;;13.33;10.10;;;0.30;99.90;;;;;;4996605;28;20189;-82
2023/02/16 05:49:02;;;;;;;15.83;8.10;;;0.20;99.90;;;;;;5014202;28;20181;-83
2023/02/16 05:51:28;;;;;;;17.70;8.43;;;0.20;99.90;;;;;;5014049;28;20185;-82
2023/02/16 05:53:54;;;;;;;6.30;4.40;;;0.20;99.90;;;;;;5014629;28;20181;-83
2023/02/16 05:56:20;;;;;;;9.10;5.17;;;0.20;99.90;;;;;;4996763;28;20193;-83
2023/02/16 05:58:46;;;;;;;12.20;5.13;;;0.30;99.90;;;;;;4980311;28;20189;-83
2023/02/16 06:01:12;;;;;;;18.30;7.73;;;0.20;99.90;;;;;;4996508;28;20660;-83
2023/02/16 06:03:37;;;;;;;18.70;6.67;;;0.20;99.90;;;;;;4996448;28;20177;-84
2023/02/16 06:06:04;;;;;;;13.00;6.33;;;0.20;99.90;;;;;;4980163;28;20227;-82
2023/02/16 06:08:30;;;;;;;16.80;7.17;;;0.20;99.90;;;;;;4995943;28;20217;-83
2023/02/16 06:10:57;;;;;;;19.87;6.47;;;0.20;99.90;;;;;;5005150;28;20189;-83
2023/02/16 06:13:23;;;;;;;14.00;7.07;;;0.20;99.90;;;;;;5010282;28;20181;-83
2023/02/16 06:15:54;;;;;;;16.40;7.13;;;0.20;99.90;;;;;;5030266;28;20654;-83
2023/02/16 06:18:21;;;;;;;12.97;5.77;;;0.20;99.90;;;;;;5031162;28;20211;-83
2023/02/16 06:20:47;;;;;;;11.63;8.30;;;0.20;99.90;;;;;;5013983;28;20189;-82
2023/02/16 06:23:14;;;;;;;13.57;7.13;;;0.30;99.90;;;;;;5001914;28;20190;-83
2023/02/16 06:25:47;;;;;;;9.97;7.27;;;0.40;99.90;;;;;;5012401;28;20287;-83
2023/02/16 06:28:12;;;;;;;15.43;5.97;;;0.30;99.90;;;;;;5021954;28;20185;-83
2023/02/16 06:30:38;;;;;;;18.17;7.73;;;0.40;99.90;;;;;;5002206;28;20268;-83
2023/02/16 06:33:04;;;;;;;15.97;7.40;;;0.50;99.90;;;;;;4999285;28;20193;-83
2023/02/16 06:35:30;;;;;;;16.90;8.33;;;0.60;99.90;;;;;;5021905;28;20243;-83
2023/02/16 06:37:55;;;;;;;13.77;6.63;;;0.60;99.90;;;;;;4986724;28;20185;-83
2023/02/16 06:40:21;;;;;;;11.27;7.87;;;0.70;99.90;;;;;;5004112;28;20219;-83
2023/02/16 06:42:47;;;;;;;11.07;5.77;;;0.70;99.90;;;;;;5002214;28;20258;-82
2023/02/16 06:45:12;;;;;;;21.03;6.80;;;0.80;99.90;;;;;;5010900;28;20221;-82
2023/02/16 06:47:38;;;;;;;17.53;6.83;;;0.90;99.90;;;;;;5000409;28;20185;-82
2023/02/16 06:50:06;;;;;;;19.57;8.77;;;1.00;99.90;;;;;;4984245;28;20208;-82
2023/02/16 06:52:32;;;;;;;12.60;6.93;;;1.10;99.90;;;;;;5012375;28;20688;-82
2023/02/16 06:54:57;;;;;;;17.17;7.40;;;1.10;99.90;;;;;;5009901;28;20208;-84
2023/02/16 06:57:23;;;;;;;26.67;9.83;;;1.20;99.90;;;;;;4999697;28;20672;-81
2023/02/16 06:59:49;;;;;;;13.80;7.40;;;1.30;99.90;;;;;;5005271;28;20264;-83
2023/02/16 07:02:14;;;;;;;13.97;7.43;;;1.40;99.90;;;;;;5012289;28;20212;-83
2023/02/16 07:04:40;;;;;;;11.17;5.97;;;1.40;99.90;;;;;;4995898;28;20221;-83
2023/02/16 07:07:06;;;;;;;9.23;6.93;;;1.60;99.90;;;;;;5008812;28;20185;-83
2023/02/16 07:09:34;;;;;;;17.27;5.83;;;1.50;99.90;;;;;;4995665;28;20196;-85
2023/02/16 07:12:00;;;;;;;12.03;7.07;;;1.60;99.90;;;;;;5027700;28;20191;-83
2023/02/16 07:14:25;;;;;;;12.20;6.97;;;1.60;99.90;;;;;;5028410;28;20188;-83
2023/02/16 07:16:51;;;;;;;24.50;9.97;;;1.70;99.90;;;;;;5024535;28;20193;-83
2023/02/16 07:19:17;;;;;;;16.73;7.03;;;1.80;99.90;;;;;;5007661;28;20187;-83
2023/02/16 07:21:42;;;;;;;17.90;8.73;;;1.90;99.90;;;;;;5006702;28;20207;-84
2023/02/16 07:24:08;;;;;;;15.83;7.87;;;1.90;99.90;;;;;;5000387;28;20245;-85
2023/02/16 07:26:37;;;;;;;12.47;6.17;;;2.00;99.90;;;;;;5000612;28;20228;-84
2023/02/16 07:29:02;;;;;;;23.27;9.40;;;2.10;99.90;;;;;;5003512;28;20268;-84
2023/02/16 07:31:28;;;;;;;19.20;8.47;;;2.20;99.90;;;;;;5008004;28;20329;-85
2023/02/16 07:33:54;;;;;;;17.37;8.30;;;2.30;99.90;;;;;;4996069;28;20711;-84
2023/02/16 07:36:20;;;;;;;19.70;8.67;;;2.30;99.90;;;;;;5004686;28;20190;-84
2023/02/16 07:38:45;;;;;;;20.37;9.40;;;2.30;99.90;;;;;;4998137;28;20283;-85
2023/02/16 07:41:11;;;;;;;21.70;9.37;;;2.40;99.90;;;;;;5008944;28;20244;-84
2023/02/16 07:43:38;;;;;;;15.43;8.97;;;2.40;99.90;;;;;;5007213;28;20198;-85
2023/02/16 07:46:04;;;;;;;26.13;10.63;;;2.40;99.90;;;;;;5012733;28;20258;-84
2023/02/16 07:48:30;;;;;;;23.43;9.37;;;2.50;99.90;;;;;;5000433;28;20209;-84
2023/02/16 07:50:55;;;;;;;21.63;10.23;;;2.50;99.90;;;;;;4997025;28;20226;-84
2023/02/16 07:53:21;;;;;;;15.37;9.47;;;2.60;99.90;;;;;;5005013;28;20200;-83
2023/02/16 07:55:47;;;;;;;25.77;11.40;;;2.70;99.90;;;;;;5013370;28;20197;-84
2023/02/16 07:58:26;;;;;;;17.67;10.03;;;2.70;99.90;;;;;;5001490;28;20186;-83
2023/02/16 08:01:10;;;;;;;23.93;9.97;;;2.80;99.90;;;;;;5002949;28;20208;-84
2023/02/16 08:03:36;;;;;;;25.57;9.40;;;2.90;99.90;;;;;;5011077;28;20242;-83
2023/02/16 08:06:03;;;;;;;25.50;10.50;;;2.90;99.90;;;;;;5013285;28;20225;-83
2023/02/16 08:08:29;;;;;;;26.30;13.00;;;3.00;99.90;;;;;;5013274;28;20738;-83
2023/02/16 08:10:55;;;;;;;21.20;10.63;;;3.00;99.90;;;;;;5005116;28;20181;-83
2023/02/16 08:13:21;;;;;;;27.03;10.40;;;3.10;99.90;;;;;;4993825;28;20248;-83
2023/02/16 08:15:47;;;;;;;21.50;9.53;;;3.20;99.90;;;;;;5000328;28;20209;-83
2023/02/16 08:18:12;;;;;;;18.33;8.97;;;3.20;99.90;;;;;;5012720;28;20189;-83
2023/02/16 08:20:38;;;;;;;25.73;10.50;;;3.20;99.90;;;;;;5007087;28;20218;-83
2023/02/16 08:23:04;;;;;;;28.20;11.63;;;3.10;99.90;;;;;;4997020;28;20200;-83
2023/02/16 08:25:32;;;;;;;28.70;11.70;;;3.20;99.90;;;;;;4982849;28;20230;-82
2023/02/16 08:27:59;;;;;;;38.97;11.10;;;3.20;99.90;;;;;;5008195;28;20274;-83
2023/02/16 08:30:25;;;;;;;39.63;13.20;;;3.20;99.90;;;;;;5011352;28;20185;-83
2023/02/16 08:32:52;;;;;;;27.93;11.60;;;3.20;99.90;;;;;;5010333;28;20199;-83
2023/02/16 08:35:17;;;;;;;27.73;12.27;;;3.20;99.90;;;;;;4981490;28;20198;-82
2023/02/16 08:37:43;;;;;;;31.27;12.03;;;3.30;99.90;;;;;;5002048;28;20737;-84
2023/02/16 08:40:09;;;;;;;25.20;11.07;;;3.30;99.90;;;;;;5003454;28;20660;-83
2023/02/16 08:42:38;;;;;;;29.83;12.40;;;3.40;99.90;;;;;;4992401;28;20523;-83
2023/02/16 08:45:05;;;;;;;19.70;11.73;;;3.40;99.90;;;;;;4973718;28;20233;-82
2023/02/16 08:47:31;;;;;;;25.17;10.80;;;3.40;99.90;;;;;;5011363;28;20263;-83
2023/02/16 08:49:57;;;;;;;26.83;11.73;;;3.40;99.90;;;;;;5014292;28;20217;-83
2023/02/16 08:52:23;;;;;;;25.17;13.57;;;3.50;99.90;;;;;;5013854;28;20667;-83
2023/02/16 08:54:49;;;;;;;35.40;13.53;;;3.50;99.90;;;;;;4997770;28;20248;-82
2023/02/16 08:57:14;;;;;;;20.83;10.23;;;3.50;99.90;;;;;;5012945;28;20665;-82
2023/02/16 08:59:40;;;;;;;23.83;11.33;;;3.70;99.90;;;;;;5015277;28;20173;-83
2023/02/16 09:02:06;;;;;;;26.83;11.07;;;3.70;99.90;;;;;;5015297;28;20645;-83
2023/02/16 09:04:32;;;;;;;38.33;13.03;;;3.70;99.90;;;;;;5013769;28;20363;-83
2023/02/16 09:06:58;;;;;;;22.20;9.77;;;3.80;99.90;;;;;;5013613;28;20284;-84
2023/02/16 09:09:25;;;;;;;18.57;10.27;;;3.90;99.90;;;;;;5013853;28;20629;-83
2023/02/16 09:11:51;;;;;;;32.53;11.67;;;3.90;99.90;;;;;;5014884;28;20180;-83
2023/02/16 09:14:17;;;;;;;23.47;12.53;;;3.90;99.90;;;;;;5013780;28;20185;-83
2023/02/16 09:16:46;;;;;;;18.37;11.70;;;4.00;99.90;;;;;;5013947;28;20265;-83
2023/02/16 09:19:17;;;;;;;24.47;11.77;;;4.00;99.90;;;;;;5014751;28;20181;-83
2023/02/16 09:21:45;;;;;;;27.37;10.40;;;4.10;99.90;;;;;;5015022;28;20169;-83
2023/02/16 09:24:11;;;;;;;26.13;10.87;;;4.10;99.90;;;;;;5018138;28;20227;-82
2023/02/16 09:26:41;;;;;;;23.87;10.80;;;4.20;99.90;;;;;;5016948;28;20180;-83
2023/02/16 09:29:09;;;;;;;24.90;11.20;;;4.30;99.90;;;;;;5034358;28;20643;-83
2023/02/16 09:31:36;;;;;;;19.60;10.53;;;4.30;99.90;;;;;;5034472;28;20172;-83
2023/02/16 09:34:03;;;;;;;23.90;9.03;;;4.40;99.90;;;;;;5034227;28;20177;-83
2023/02/16 09:36:29;;;;;;;24.23;11.53;;;4.40;99.90;;;;;;5034136;28;20185;-83
2023/02/16 09:38:55;;;;;;;28.33;13.53;;;4.40;99.90;;;;;;5034445;28;20697;-83
2023/02/16 09:41:39;;;;;;;25.73;10.30;;;4.50;99.90;;;;;;5016593;28;20181;-84
2023/02/16 09:44:14;;;;;;;19.43;9.97;;;4.60;99.90;;;;;;5034239;28;20243;-84
2023/02/16 09:46:41;;;;;;;23.67;11.80;;;4.70;99.90;;;;;;5034321;28;20283;-83
2023/02/16 09:49:22;;;;;;;26.70;9.03;;;4.80;99.90;;;;;;5016125;28;20181;-83
2023/02/16 09:51:54;;;;;;;27.23;12.80;;;4.80;99.90;;;;;;5016191;28;20183;-83
2023/02/16 09:54:49;;;;;;;30.43;10.93;;;4.90;99.90;;;;;;5034141;28;20157;-83
2023/02/16 09:57:54;;;;;;;23.27;11.30;;;4.90;99.90;;;;;;5016099;28;20184;-84
2023/02/16 10:00:31;;;;;;;26.87;11.47;;;4.60;99.90;;;;;;5034032;28;20172;-83
2023/02/16 10:03:31;;;;;;;34.53;13.43;;;4.70;99.90;;;;;;5033763;28;20173;-84
2023/02/16 10:06:12;;;;;;;31.00;11.80;;;4.80;99.90;;;;;;5015805;28;20208;-85
2023/02/16 10:09:01;;;;;;;20.97;10.23;;;4.90;99.90;;;;;;5033478;28;20188;-83
2023/02/16 10:11:50;;;;;;;34.90;12.77;;;4.80;99.90;;;;;;5033692;28;20153;-84
2023/02/16 10:14:30;;;;;;;29.77;12.70;;;4.90;99.90;;;;;;5033484;28;20230;-83
2023/02/16 10:17:14;;;;;;;21.33;9.20;;;5.00;99.90;;;;;;5015947;28;20622;-83
2023/02/16 10:19:54;;;;;;;28.17;10.90;;;5.20;99.90;;;;;;5015830;28;20173;-83
2023/02/16 10:22:31;;;;;;;27.13;13.03;;;5.20;99.90;;;;;;5033460;28;20164;-83
2023/02/16 10:25:01;;;;;;;28.93;10.40;;;5.20;99.90;;;;;;5033110;28;20231;-82
2023/02/16 10:27:39;;;;;;;19.53;10.67;;;5.30;99.90;;;;;;5032816;28;20176;-83
2023/02/16 10:30:11;;;;;;;25.60;12.20;;;5.40;99.90;;;;;;5032585;28;20174;-83
2023/02/16 10:33:04;;;;;;;26.27;12.60;;;5.50;99.90;;;;;;5014924;28;20216;-83
2023/02/16 10:35:48;;;;;;;27.40;11.70;;;5.70;99.90;;;;;;4986218;28;20224;-83
2023/02/16 10:38:23;;;;;;;32.97;12.47;;;5.90;99.90;;;;;;5032330;28;20259;-83
2023/02/16 10:40:58;;;;;;;25.57;12.17;;;6.10;99.90;;;;;;5032675;28;20165;-83
2023/02/16 10:43:45;;;;;;;21.77;11.17;;;6.10;99.90;;;;;;5032335;28;20160;-83
2023/02/16 10:46:19;;;;;;;26.97;11.57;;;6.10;99.90;;;;;;5014357;28;20224;-83
2023/02/16 10:48:45;;;;;;;21.33;11.30;;;6.20;99.90;;;;;;5032517;28;20168;-83
2023/02/16 10:51:16;;;;;;;21.50;10.50;;;6.10;99.90;;;;;;5032239;28;20176;-83
2023/02/16 10:54:19;;;;;;;32.13;12.60;;;6.20;99.90;;;;;;5032416;28;20208;-83
2023/02/16 10:56:53;;;;;;;29.87;11.57;;;6.30;99.90;;;;;;5010698;28;20659;-83
2023/02/16 10:59:23;;;;;;;26.80;11.40;;;6.20;99.90;;;;;;5032140;28;20269;-84
2023/02/16 11:01:53;;;;;;;26.23;7.87;;;6.40;99.90;;;;;;5014799;28;20195;-83
2023/02/16 11:04:41;;;;;;;37.27;13.70;;;6.40;99.90;;;;;;5014301;28;20203;-83
2023/02/16 11:07:19;;;;;;;22.70;11.60;;;6.50;99.90;;;;;;5032115;28;20175;-84
2023/02/16 11:09:50;;;;;;;41.13;15.63;;;6.40;99.90;;;;;;5014442;28;20230;-83
2023/02/16 11:12:38;;;;;;;35.30;11.37;;;6.60;99.90;;;;;;5031950;28;20680;-84
2023/02/16 11:15:23;;;;;;;25.20;12.17;;;6.60;99.90;;;;;;5031918;28;20247;-83
2023/02/16 11:17:51;;;;;;;29.03;11.80;;;6.80;99.90;;;;;;5014498;28;20172;-82
2023/02/16 11:20:49;;;;;;;28.67;12.83;;;6.80;99.90;;;;;;5015642;28;20387;-82
2023/02/16 11:23:22;;;;;;;26.73;12.13;;;6.70;99.90;;;;;;5017746;28;20192;-82
2023/02/16 11:26:10;;;;;;;37.00;13.57;;;6.90;99.90;;;;;;4996561;28;1144284;-82
2023/02/16 11:28:45;;;;;;;29.47;12.87;;;6.90;99.90;;;;;;5036863;28;20259;-82
2023/02/16 11:31:30;;;;;;;25.40;11.73;;;7.00;99.90;;;;;;5036289;28;20176;-83
2023/02/16 11:34:03;;;;;;;26.90;13.63;;;7.10;99.90;;;;;;5036438;28;20187;-83
2023/02/16 11:36:44;;;;;;;23.60;11.37;;;7.10;99.90;;;;;;5018452;28;20195;-83
2023/02/16 11:39:13;;;;;;;23.00;12.47;;;7.00;99.90;;;;;;5018650;28;20748;-84
2023/02/16 11:41:47;;;;;;;37.73;13.87;;;6.90;99.90;;;;;;5018573;28;20180;-85
2023/02/16 11:44:22;;;;;;;24.93;11.57;;;6.90;99.90;;;;;;5018565;28;20188;-83
2023/02/16 11:46:47;;;;;;;28.20;13.63;;;6.90;99.90;;;;;;5018851;28;20188;-83
2023/02/16 11:49:31;;;;;;;27.77;12.07;;;6.90;99.90;;;;;;5020430;28;20264;-83
2023/02/16 11:51:58;;;;;;;31.47;12.13;;;6.90;99.90;;;;;;5018757;28;20169;-83
2023/02/16 11:54:23;;;;;;;37.97;13.00;;;7.00;99.90;;;;;;5035970;28;20177;-83
2023/02/16 11:57:05;;;;;;;34.90;12.70;;;7.20;99.90;;;;;;5018813;28;20534;-83
2023/02/16 11:59:37;;;;;;;28.70;13.43;;;7.30;99.90;;;;;;5035755;28;20169;-83
2023/02/16 12:02:41;;;;;;;31.80;13.00;;;7.30;99.90;;;;;;5019592;28;20528;-83
2023/02/16 12:05:28;;;;;;;28.60;12.40;;;7.30;99.90;;;;;;5039712;28;20222;-84
2023/02/16 12:08:06;;;;;;;25.47;12.27;;;7.20;99.90;;;;;;5040386;28;20153;-83
2023/02/16 12:10:42;;;;;;;30.50;12.90;;;7.10;99.90;;;;;;5025040;28;20191;-83
2023/02/16 12:13:32;;;;;;;23.83;11.50;;;7.20;99.90;;;;;;5018304;28;20606;-83
2023/02/16 12:16:14;;;;;;;27.50;12.10;;;7.30;99.90;;;;;;5018942;28;20185;-83
2023/02/16 12:19:12;;;;;;;34.47;12.83;;;7.20;99.90;;;;;;5035858;28;20164;-83
2023/02/16 12:21:49;;;;;;;30.83;12.93;;;7.30;99.90;;;;;;5017719;28;20183;-84
2023/02/16 12:24:48;;;;;;;29.00;13.47;;;7.30;99.90;;;;;;5017803;28;20172;-84
2023/02/16 12:27:39;;;;;;;22.63;12.17;;;7.30;99.90;;;;;;5017667;28;20193;-85
2023/02/16 12:30:30;;;;;;;26.43;12.37;;;7.30;99.90;;;;;;5017842;28;20588;-85
2023/02/16 12:33:02;;;;;;;20.87;10.10;;;7.30;99.90;;;;;;5035466;28;20629;-84
2023/02/16 12:35:55;;;;;;;21.40;11.60;;;7.30;99.90;;;;;;5017697;28;20188;-83
2023/02/16 12:38:40;;;;;;;25.63;12.53;;;7.30;99.90;;;;;;5017657;28;20589;-86
2023/02/16 12:41:06;;;;;;;28.40;10.90;;;7.30;99.90;;;;;;5035630;28;20164;-83
2023/02/16 12:43:38;;;;;;;26.00;11.27;;;7.40;99.90;;;;;;5034833;28;20238;-83
2023/02/16 12:46:13;;;;;;;25.07;10.73;;;7.30;99.90;;;;;;5035239;28;20208;-83
2023/02/16 12:48:47;;;;;;;23.47;10.40;;;7.30;99.90;;;;;;5017125;28;20180;-84
2023/02/16 12:51:21;;;;;;;23.90;9.80;;;7.40;99.90;;;;;;5017656;28;20180;-83
2023/02/16 12:54:11;;;;;;;22.37;10.60;;;7.30;99.90;;;;;;5035406;28;20183;-84
2023/02/16 12:56:45;;;;;;;15.07;7.87;;;7.40;99.90;;;;;;5034746;28;20169;-83
2023/02/16 12:59:38;;;;;;;21.53;9.77;;;7.40;99.90;;;;;;5035194;28;20579;-84
2023/02/16 13:02:20;;;;;;;24.60;10.97;;;7.50;99.90;;;;;;5020374;28;20226;-84
2023/02/16 13:04:58;;;;;;;25.03;10.97;;;7.60;99.90;;;;;;5034777;28;20196;-84
2023/02/16 13:07:26;;;;;;;22.10;9.57;;;7.70;99.90;;;;;;5034897;28;20165;-85
2023/02/16 13:10:27;;;;;;;26.13;10.13;;;7.70;99.90;;;;;;5017144;28;20188;-84
2023/02/16 13:13:03;;;;;;;31.17;11.67;;;7.70;99.90;;;;;;5017093;28;20191;-84
2023/02/16 13:15:35;;;;;;;25.97;10.90;;;7.80;99.90;;;;;;5034546;28;20192;-85
2023/02/16 13:18:17;;;;;;;25.40;10.87;;;7.80;99.90;;;;;;5034764;28;20625;-85
2023/02/16 13:21:09;;;;;;;26.43;9.77;;;8.00;99.90;;;;;;5017356;28;20188;-84
2023/02/16 13:23:38;;;;;;;21.30;10.57;;;8.30;99.90;;;;;;5021939;28;20185;-86
2023/02/16 13:26:19;;;;;;;20.37;8.60;;;8.10;99.90;;;;;;5034748;28;20239;-86
2023/02/16 13:29:09;;;;;;;36.07;11.23;;;8.20;99.90;;;;;;5033962;28;20645;-84
2023/02/16 13:31:43;;;;;;;33.83;12.23;;;8.50;99.90;;;;;;5016464;28;20271;-84
2023/02/16 13:34:37;;;;;;;21.00;11.17;;;8.40;99.90;;;;;;5034478;28;20614;-84
2023/02/16 13:37:16;;;;;;;24.80;10.47;;;8.50;99.90;;;;;;5034698;28;20186;-84
2023/02/16 13:39:57;;;;;;;29.90;11.90;;;8.70;99.90;;;;;;5034148;28;20646;-84
2023/02/16 13:42:37;;;;;;;26.50;10.13;;;8.90;99.90;;;;;;5027036;28;20189;-84
2023/02/16 13:45:15;;;;;;;34.23;12.83;;;9.10;99.90;;;;;;4996236;28;20221;-84
2023/02/16 13:47:41;;;;;;;28.87;12.00;;;9.30;99.90;;;;;;5014114;28;20169;-84
2023/02/16 13:50:25;;;;;;;26.83;13.60;;;9.20;99.90;;;;;;4996512;28;20187;-85